Portada
METAR-TAF:

METAR-TAF

Aeropuertos :

Aeropuerto Internacional de Maiquetía Simón Bolívar

Caracas, Venezuela

latitud: 10-36N, longitud: 066-59W, altitud: 43 m

Observación

El informe se hizo hace 6 minutos, a las 20:00 UTC
Viento 4 kt del este
Temperatura 28°C
Humedad 106%
Presión 1015 hPa
Visibilidad 10 km o más
Cielo nuboso a una altura de 1600 ft

METAR: SVMI 182000Z 09004KT 9999 BKN016 28/29 Q1015

Hora: 16:06 (20:06 UTC)

Pronóstico

El informe se hizo hace 10 horas y 6 minutos, a las 10:00 UTC
Pronóstico válido del 18 a las 12 UTC al 19 a las 12 UTC
Viento 6 kt del este
Visibilidad 10 km o más
Cielo nuboso a una altura de 1600 ft
Evolucionando progresivamente
del 18 a las 12 UTC al 18 a las 16 UTC
Viento 10 kt del este
Nubes dispersas a una altura de 1600 ft

TAF: SVMI 181000Z 1812/1912 09006KT 9999 BKN016 TX28/0818Z TN21/0809Z BECMG 1812/1816 09010KT SCT016

Observaciones y pronósticos meteorológicos de más de 4000 aeropuertos (mensajes METAR y TAF).

Los puntos amarillos y rojos representan las estaciones disponibles.

Ponga el ratón en el punto deseado para ver el nombre de la estación.

Haga clic para ver las observaciones y los pronósticos meteorológicos.

Para cambiar el mapa : haga clic en los botones verdes con una cruz de color negro para hacer un zoom, en el botón verde con un guión para alejar o en las flechas verdes para mapas adyacentes.


METAR-TAF: